Time;durP1;ratioP1;P1;durP2;ratioP2;P2;SDS_P1;SDS_P2;PMS_P1;PMS_P2;Temp;Humidity;BMP_temperature;BMP_pressure;BME280_temperature;BME280_humidity;BME280_pressure;Samples;Min_cycle;Max_cycle;Signal;HPM_P1;HPM_P2
2022/12/16 00:01:41;;;;;;;;;;;;;;;-4.36;100.00;100895.63;5012244;28;19921;-65
2022/12/16 00:04:07;;;;;;;;;;;;;;;-4.33;100.00;100889.81;5011746;28;19913;-65
2022/12/16 00:06:32;;;;;;;;;;;;;;;-4.30;100.00;100884.00;5012118;28;19913;-65
2022/12/16 00:08:58;;;;;;;;;;;;;;;-4.27;100.00;100888.97;5012071;28;20419;-65
2022/12/16 00:11:23;;;;;;;;;;;;;;;-4.23;100.00;100888.34;5011918;28;19965;-65
2022/12/16 00:13:49;;;;;;;;;;;;;;;-4.19;100.00;100894.19;5012189;28;19948;-65
2022/12/16 00:16:15;;;;;;;;;;;;;;;-4.15;100.00;100902.69;5012347;28;20234;-65
2022/12/16 00:18:40;;;;;;;;;;;;;;;-4.10;100.00;100892.94;5012024;28;19917;-65
2022/12/16 00:21:06;;;;;;;;;;;;;;;-4.06;100.00;100906.84;5011514;28;19960;-65
2022/12/16 00:23:32;;;;;;;;;;;;;;;-4.02;100.00;100893.78;5011938;28;19924;-65
2022/12/16 00:25:57;;;;;;;;;;;;;;;-3.97;100.00;100891.28;5012161;28;19984;-64
2022/12/16 00:28:23;;;;;;;;;;;;;;;-3.94;100.00;100886.28;5011936;28;19967;-65
2022/12/16 00:30:52;;;;;;;;;;;;;;;-3.87;100.00;100886.28;5012094;28;19913;-63
2022/12/16 00:33:18;;;;;;;;;;;;;;;-3.82;100.00;100893.75;5012107;28;19924;-62
2022/12/16 00:35:43;;;;;;;;;;;;;;;-3.79;100.00;100886.06;5012041;28;19913;-62
2022/12/16 00:38:08;;;;;;;;;;;;;;;-3.76;100.00;100893.75;5011937;28;20075;-63
2022/12/16 00:40:34;;;;;;;;;;;;;;;-3.71;100.00;100885.03;5011968;28;19921;-62
2022/12/16 00:42:59;;;;;;;;;;;;;;;-3.66;100.00;100893.31;5008211;28;19920;-62
2022/12/16 00:45:24;;;;;;;;;;;;;;;-3.62;100.00;100885.63;5011939;28;19917;-62
2022/12/16 00:47:49;;;;;;;;;;;;;;;-3.57;100.00;100882.28;5012111;28;19920;-62
2022/12/16 00:50:15;;;;;;;;;;;;;;;-3.54;100.00;100888.09;5011698;28;20447;-62
2022/12/16 00:52:40;;;;;;;;;;;;;;;-3.51;100.00;100887.69;5011735;28;20401;-62
2022/12/16 00:55:06;;;;;;;;;;;;;;;-3.48;100.00;100886.41;5011798;28;19914;-62
2022/12/16 00:57:32;;;;;;;;;;;;;;;-3.48;100.00;100891.81;5012023;28;19917;-62
2022/12/16 00:59:57;;;;;;;;;;;;;;;-3.44;100.00;100887.66;5011997;28;19920;-62
2022/12/16 01:02:22;;;;;;;;;;;;;;;-3.41;100.00;100884.56;5011811;28;20360;-62
2022/12/16 01:04:47;;;;;;;;;;;;;;;-3.42;100.00;100896.41;5011709;28;19918;-62
2022/12/16 01:07:12;;;;;;;;;;;;;;;-3.42;100.00;100904.53;5012009;28;19960;-62
2022/12/16 01:09:38;;;;;;;;;;;;;;;-3.38;100.00;100900.34;5011944;28;19917;-63
2022/12/16 01:12:03;;;;;;;;;;;;;;;-3.36;100.00;100909.09;5011820;28;19917;-62
2022/12/16 01:14:28;;;;;;;;;;;;;;;-3.33;100.00;100914.06;5011705;28;20373;-62
2022/12/16 01:16:53;;;;;;;;;;;;;;;-3.30;100.00;100912.81;5012163;28;20338;-63
2022/12/16 01:19:18;;;;;;;;;;;;;;;-3.28;100.00;100918.84;5011820;28;19917;-63
2022/12/16 01:21:44;;;;;;;;;;;;;;;-3.25;100.00;100920.28;5011673;28;19917;-63
2022/12/16 01:24:09;;;;;;;;;;;;;;;-3.24;100.00;100924.66;5011696;28;20373;-62
2022/12/16 01:26:35;;;;;;;;;;;;;;;-3.22;100.00;100925.28;5011846;28;19952;-62
2022/12/16 01:29:00;;;;;;;;;;;;;;;-3.22;100.00;100912.59;5011953;28;19917;-62
2022/12/16 01:31:26;;;;;;;;;;;;;;;-3.19;100.00;100919.44;5012284;28;20402;-63
2022/12/16 01:33:51;;;;;;;;;;;;;;;-3.19;100.00;100919.44;5015162;28;19948;-63
2022/12/16 01:36:16;;;;;;;;;;;;;;;-3.17;100.00;100922.75;5015283;28;20012;-63
2022/12/16 01:38:43;;;;;;;;;;;;;;;-3.16;100.00;100932.56;5010755;28;19963;-63
2022/12/16 01:41:08;;;;;;;;;;;;;;;-3.15;100.00;100935.03;5015186;28;19920;-63
2022/12/16 01:43:35;;;;;;;;;;;;;;;-3.11;100.00;100948.16;5015048;28;19913;-63
2022/12/16 01:46:03;;;;;;;;;;;;;;;-3.10;100.00;100944.41;5014969;28;19913;-63
2022/12/16 01:48:28;;;;;;;;;;;;;;;-3.07;100.00;100944.81;5014887;28;19921;-63
2022/12/16 01:50:56;;;;;;;;;;;;;;;-3.05;100.00;100945.44;5014784;28;19913;-63
2022/12/16 01:53:21;;;;;;;;;;;;;;;-3.03;100.00;100940.66;5014737;28;19918;-63
2022/12/16 01:55:49;;;;;;;;;;;;;;;-3.02;100.00;100944.97;5014679;28;19917;-63
2022/12/16 01:58:17;;;;;;;;;;;;;;;-3.00;100.00;100944.78;5014963;28;20296;-64
2022/12/16 02:00:42;;;;;;;;;;;;;;;-2.98;100.00;100943.53;5014735;28;19917;-64
2022/12/16 02:03:08;;;;;;;;;;;;;;;-2.96;100.00;100950.59;5014461;28;19920;-64
2022/12/16 02:05:35;;;;;;;;;;;;;;;-2.97;100.00;100949.75;5014272;28;19956;-64
2022/12/16 02:08:05;;;;;;;;;;;;;;;-2.96;100.00;100966.84;5014222;28;19913;-64
2022/12/16 02:10:42;;;;;;;;;;;;;;;-2.96;100.00;100956.03;5014480;28;19913;-64
2022/12/16 02:13:37;;;;;;;;;;;;;;;-2.96;100.00;100962.25;5014359;28;19924;-64
2022/12/16 02:16:05;;;;;;;;;;;;;;;-2.91;100.00;100972.44;5005044;28;19969;-64
2022/12/16 02:18:33;;;;;;;;;;;;;;;-2.90;100.00;100966.84;5013955;28;19925;-63
2022/12/16 02:21:01;;;;;;;;;;;;;;;-2.87;100.00;100965.56;5012633;28;19921;-64
2022/12/16 02:23:47;;;;;;;;;;;;;;;-2.85;100.00;100967.00;5013919;28;19917;-64
2022/12/16 02:26:12;;;;;;;;;;;;;;;-2.80;100.00;100969.06;5013776;28;19925;-64
2022/12/16 02:28:51;;;;;;;;;;;;;;;-2.72;100.00;100973.44;5013972;28;19920;-63
2022/12/16 02:31:17;;;;;;;;;;;;;;;-2.63;100.00;100976.72;5013923;28;20288;-63
2022/12/16 02:33:42;;;;;;;;;;;;;;;-2.62;100.00;100972.97;5010493;28;20357;-63
2022/12/16 02:36:26;;;;;;;;;;;;;;;-2.62;100.00;100971.09;5013796;28;19960;-64
2022/12/16 02:38:55;;;;;;;;;;;;;;;-2.57;100.00;100976.69;5013583;28;19932;-63
2022/12/16 02:41:23;;;;;;;;;;;;;;;-2.55;100.00;100980.03;5012408;28;19921;-64
2022/12/16 02:43:50;;;;;;;;;;;;;;;-2.56;100.00;100977.53;5013049;28;19914;-65
2022/12/16 02:46:16;;;;;;;;;;;;;;;-2.58;100.00;100979.63;5013640;28;19928;-65
2022/12/16 02:48:41;;;;;;;;;;;;;;;-2.60;100.00;100984.41;5013654;28;19913;-65
2022/12/16 02:51:06;;;;;;;;;;;;;;;-2.61;100.00;100982.75;5013640;28;19920;-64
2022/12/16 02:53:34;;;;;;;;;;;;;;;-2.62;100.00;100983.78;5013456;28;19913;-64
2022/12/16 02:56:13;;;;;;;;;;;;;;;-2.61;100.00;100989.03;5013519;28;19948;-63
2022/12/16 02:58:56;;;;;;;;;;;;;;;-2.59;100.00;100989.59;5013715;28;20026;-63
2022/12/16 03:01:28;;;;;;;;;;;;;;;-2.60;100.00;100987.13;5013492;28;19913;-64
2022/12/16 03:04:01;;;;;;;;;;;;;;;-2.58;100.00;100987.75;5013178;28;19932;-63
2022/12/16 03:06:28;;;;;;;;;;;;;;;-2.58;100.00;100983.16;5013156;28;20388;-63
2022/12/16 03:08:56;;;;;;;;;;;;;;;-2.57;100.00;100984.81;5013064;28;19913;-63
2022/12/16 03:11:22;;;;;;;;;;;;;;;-2.56;100.00;100989.19;5012894;28;20381;-63
2022/12/16 03:13:50;;;;;;;;;;;;;;;-2.58;100.00;100987.75;5012864;28;19921;-63
2022/12/16 03:16:17;;;;;;;;;;;;;;;-2.58;100.00;100987.75;5012698;28;19921;-64
2022/12/16 03:18:44;;;;;;;;;;;;;;;-2.54;100.00;100991.66;5012963;28;19914;-64
2022/12/16 03:21:11;;;;;;;;;;;;;;;-2.54;100.00;100986.25;5012918;28;20350;-64
2022/12/16 03:23:48;;;;;;;;;;;;;;;-2.57;100.00;100992.94;5012766;28;19917;-65
2022/12/16 03:26:29;;;;;;;;;;;;;;;-2.58;100.00;100990.47;5013040;28;19980;-65
2022/12/16 03:29:07;;;;;;;;;;;;;;;-2.60;100.00;101001.53;5010507;28;19920;-64
2022/12/16 03:31:48;;;;;;;;;;;;;;;-2.62;100.00;100995.47;5012738;28;20328;-64
2022/12/16 03:34:24;;;;;;;;;;;;;;;-2.65;100.00;100989.66;5012712;28;19952;-64
2022/12/16 03:36:52;;;;;;;;;;;;;;;-2.71;100.00;100992.16;5012814;28;19993;-64
2022/12/16 03:39:19;;;;;;;;;;;;;;;-2.74;100.00;101002.59;5012461;28;19929;-64
2022/12/16 03:41:46;;;;;;;;;;;;;;;-2.74;100.00;101000.72;5012613;28;19914;-64
2022/12/16 03:44:11;;;;;;;;;;;;;;;-2.73;100.00;101012.38;5012338;28;19913;-64
2022/12/16 03:46:37;;;;;;;;;;;;;;;-2.73;100.00;101015.09;5012583;28;20074;-64
2022/12/16 03:49:02;;;;;;;;;;;;;;;-2.71;100.00;101021.13;5012547;28;19913;-64
2022/12/16 03:51:27;;;;;;;;;;;;;;;-2.68;100.00;101028.81;5012547;28;20313;-64
2022/12/16 03:53:53;;;;;;;;;;;;;;;-2.65;100.00;101025.69;5012700;28;19945;-64
2022/12/16 03:56:18;;;;;;;;;;;;;;;-2.62;100.00;101019.84;5012276;28;20261;-63
2022/12/16 03:58:43;;;;;;;;;;;;;;;-2.59;100.00;101014.00;5011120;28;19913;-64
2022/12/16 04:01:09;;;;;;;;;;;;;;;-2.57;100.00;101025.44;5010968;28;20397;-64
2022/12/16 04:03:34;;;;;;;;;;;;;;;-2.57;100.00;101022.75;5012171;28;19978;-64
2022/12/16 04:06:00;;;;;;;;;;;;;;;-2.58;100.00;101031.09;5012391;28;19924;-64
2022/12/16 04:08:25;;;;;;;;;;;;;;;-2.57;100.00;101041.69;5012354;28;19930;-64
2022/12/16 04:24:31;;;;;;;;;;;;;;;-2.56;100.00;101045.25;5012310;28;19936;-62
2022/12/16 04:32:24;;;;;;;;;;;;;;;-2.48;100.00;101058.56;5012254;28;19920;-64
2022/12/16 04:34:50;;;;;;;;;;;;;;;-2.43;100.00;101055.22;5011780;28;19913;-64
